sensor_id;sensor_type;location;lat;lon;timestamp;P1;durP1;ratioP1;P2;durP2;ratioP2
25155;SDS011;21913;52.456;13.634;2022-09-29T00:03:53;1.98;;;1.30;;
25155;SDS011;21913;52.456;13.634;2022-09-29T00:08:56;2.70;;;1.40;;
25155;SDS011;21913;52.456;13.634;2022-09-29T00:13:58;2.50;;;1.50;;
25155;SDS011;21913;52.456;13.634;2022-09-29T00:18:59;2.90;;;1.50;;
25155;SDS011;21913;52.456;13.634;2022-09-29T00:24:01;1.65;;;1.23;;
25155;SDS011;21913;52.456;13.634;2022-09-29T00:29:03;2.00;;;1.33;;
25155;SDS011;21913;52.456;13.634;2022-09-29T00:34:04;2.60;;;1.30;;
25155;SDS011;21913;52.456;13.634;2022-09-29T00:39:06;1.70;;;1.20;;
25155;SDS011;21913;52.456;13.634;2022-09-29T00:54:19;1.50;;;1.20;;
25155;SDS011;21913;52.456;13.634;2022-09-29T00:59:24;3.20;;;1.48;;
25155;SDS011;21913;52.456;13.634;2022-09-29T01:04:32;2.10;;;1.55;;
25155;SDS011;21913;52.456;13.634;2022-09-29T01:09:35;1.75;;;1.30;;
25155;SDS011;21913;52.456;13.634;2022-09-29T01:14:38;2.20;;;1.40;;
25155;SDS011;21913;52.456;13.634;2022-09-29T01:24:59;2.25;;;1.33;;
25155;SDS011;21913;52.456;13.634;2022-09-29T01:52:20;2.17;;;1.30;;
25155;SDS011;21913;52.456;13.634;2022-09-29T01:57:36;1.90;;;1.23;;
25155;SDS011;21913;52.456;13.634;2022-09-29T02:08:01;2.00;;;1.42;;
25155;SDS011;21913;52.456;13.634;2022-09-29T02:13:13;1.80;;;1.17;;
25155;SDS011;21913;52.456;13.634;2022-09-29T02:18:23;1.88;;;1.10;;
25155;SDS011;21913;52.456;13.634;2022-09-29T02:23:32;4.70;;;1.20;;
25155;SDS011;21913;52.456;13.634;2022-09-29T02:28:34;3.08;;;1.02;;
25155;SDS011;21913;52.456;13.634;2022-09-29T02:33:36;1.88;;;1.20;;
25155;SDS011;21913;52.456;13.634;2022-09-29T03:00:10;3.50;;;1.52;;
25155;SDS011;21913;52.456;13.634;2022-09-29T03:05:17;1.80;;;1.10;;
25155;SDS011;21913;52.456;13.634;2022-09-29T03:10:20;1.67;;;1.10;;
25155;SDS011;21913;52.456;13.634;2022-09-29T03:15:21;1.70;;;1.10;;
25155;SDS011;21913;52.456;13.634;2022-09-29T03:20:23;2.08;;;1.23;;
25155;SDS011;21913;52.456;13.634;2022-09-29T03:25:24;1.42;;;0.98;;
25155;SDS011;21913;52.456;13.634;2022-09-29T03:30:26;1.80;;;1.10;;
25155;SDS011;21913;52.456;13.634;2022-09-29T03:35:27;1.65;;;1.20;;
25155;SDS011;21913;52.456;13.634;2022-09-29T03:40:29;1.70;;;1.20;;
25155;SDS011;21913;52.456;13.634;2022-09-29T03:45:30;2.05;;;1.30;;
25155;SDS011;21913;52.456;13.634;2022-09-29T03:50:32;1.70;;;1.00;;
25155;SDS011;21913;52.456;13.634;2022-09-29T03:55:33;1.52;;;1.13;;
25155;SDS011;21913;52.456;13.634;2022-09-29T04:00:38;1.48;;;1.08;;
25155;SDS011;21913;52.456;13.634;2022-09-29T04:05:39;1.67;;;1.17;;
25155;SDS011;21913;52.456;13.634;2022-09-29T04:10:41;1.60;;;1.02;;
25155;SDS011;21913;52.456;13.634;2022-09-29T04:15:43;2.65;;;1.30;;
25155;SDS011;21913;52.456;13.634;2022-09-29T04:20:44;1.88;;;1.10;;
25155;SDS011;21913;52.456;13.634;2022-09-29T04:25:46;1.92;;;1.30;;
25155;SDS011;21913;52.456;13.634;2022-09-29T04:30:47;2.22;;;1.20;;
25155;SDS011;21913;52.456;13.634;2022-09-29T04:35:48;1.73;;;1.20;;
25155;SDS011;21913;52.456;13.634;2022-09-29T04:40:50;1.70;;;1.15;;
25155;SDS011;21913;52.456;13.634;2022-09-29T04:45:51;1.50;;;1.10;;
25155;SDS011;21913;52.456;13.634;2022-09-29T04:50:53;1.60;;;1.10;;
25155;SDS011;21913;52.456;13.634;2022-09-29T04:55:54;1.75;;;1.20;;
25155;SDS011;21913;52.456;13.634;2022-09-29T05:01:03;1.58;;;1.10;;
25155;SDS011;21913;52.456;13.634;2022-09-29T05:06:05;1.30;;;1.00;;
25155;SDS011;21913;52.456;13.634;2022-09-29T05:11:08;1.70;;;1.20;;
25155;SDS011;21913;52.456;13.634;2022-09-29T05:16:10;1.80;;;1.10;;
25155;SDS011;21913;52.456;13.634;2022-09-29T05:21:11;1.38;;;1.00;;
25155;SDS011;21913;52.456;13.634;2022-09-29T05:26:29;1.65;;;1.15;;
25155;SDS011;21913;52.456;13.634;2022-09-29T05:31:30;2.15;;;1.10;;
25155;SDS011;21913;52.456;13.634;2022-09-29T05:36:32;4.45;;;1.20;;
25155;SDS011;21913;52.456;13.634;2022-09-29T05:41:33;2.03;;;1.10;;
25155;SDS011;21913;52.456;13.634;2022-09-29T05:46:35;1.75;;;1.20;;
25155;SDS011;21913;52.456;13.634;2022-09-29T05:51:36;1.65;;;0.90;;
25155;SDS011;21913;52.456;13.634;2022-09-29T05:56:38;1.92;;;1.27;;
25155;SDS011;21913;52.456;13.634;2022-09-29T06:01:42;2.20;;;1.30;;
25155;SDS011;21913;52.456;13.634;2022-09-29T06:06:43;1.90;;;1.20;;
25155;SDS011;21913;52.456;13.634;2022-09-29T06:11:45;1.98;;;1.13;;
25155;SDS011;21913;52.456;13.634;2022-09-29T06:16:46;1.90;;;1.15;;
25155;SDS011;21913;52.456;13.634;2022-09-29T06:21:47;1.95;;;1.17;;
25155;SDS011;21913;52.456;13.634;2022-09-29T06:26:49;1.58;;;1.10;;
25155;SDS011;21913;52.456;13.634;2022-09-29T06:31:50;2.63;;;1.30;;
25155;SDS011;21913;52.456;13.634;2022-09-29T06:36:52;1.95;;;1.10;;
25155;SDS011;21913;52.456;13.634;2022-09-29T06:41:54;1.48;;;1.13;;
25155;SDS011;21913;52.456;13.634;2022-09-29T06:46:56;2.30;;;1.27;;
25155;SDS011;21913;52.456;13.634;2022-09-29T06:51:58;1.73;;;1.02;;
25155;SDS011;21913;52.456;13.634;2022-09-29T06:57:00;1.98;;;1.30;;
25155;SDS011;21913;52.456;13.634;2022-09-29T07:02:01;5.82;;;4.75;;
25155;SDS011;21913;52.456;13.634;2022-09-29T07:07:03;7.88;;;5.15;;
25155;SDS011;21913;52.456;13.634;2022-09-29T07:12:04;7.35;;;4.70;;
25155;SDS011;21913;52.456;13.634;2022-09-29T07:17:06;6.40;;;4.10;;
25155;SDS011;21913;52.456;13.634;2022-09-29T07:22:07;5.85;;;3.83;;
25155;SDS011;21913;52.456;13.634;2022-09-29T07:27:09;7.13;;;3.45;;
25155;SDS011;21913;52.456;13.634;2022-09-29T07:32:10;5.70;;;3.00;;
25155;SDS011;21913;52.456;13.634;2022-09-29T07:37:19;5.68;;;2.65;;
25155;SDS011;21913;52.456;13.634;2022-09-29T07:42:21;4.53;;;2.53;;
25155;SDS011;21913;52.456;13.634;2022-09-29T07:47:28;4.15;;;2.42;;
25155;SDS011;21913;52.456;13.634;2022-09-29T07:52:29;4.43;;;2.38;;
25155;SDS011;21913;52.456;13.634;2022-09-29T07:57:31;3.78;;;1.92;;
25155;SDS011;21913;52.456;13.634;2022-09-29T08:02:32;3.65;;;1.63;;
25155;SDS011;21913;52.456;13.634;2022-09-29T08:07:34;5.78;;;1.58;;
25155;SDS011;21913;52.456;13.634;2022-09-29T08:12:35;2.92;;;1.60;;
25155;SDS011;21913;52.456;13.634;2022-09-29T08:17:42;2.65;;;1.60;;
25155;SDS011;21913;52.456;13.634;2022-09-29T08:22:45;2.53;;;1.50;;
25155;SDS011;21913;52.456;13.634;2022-09-29T08:27:46;3.08;;;1.50;;
25155;SDS011;21913;52.456;13.634;2022-09-29T08:32:52;2.85;;;1.45;;
25155;SDS011;21913;52.456;13.634;2022-09-29T08:37:54;2.63;;;1.50;;
25155;SDS011;21913;52.456;13.634;2022-09-29T08:43:00;3.92;;;1.50;;
25155;SDS011;21913;52.456;13.634;2022-09-29T08:48:20;3.00;;;1.30;;
25155;SDS011;21913;52.456;13.634;2022-09-29T08:53:26;2.70;;;1.42;;
25155;SDS011;21913;52.456;13.634;2022-09-29T08:58:30;1.58;;;1.00;;
25155;SDS011;21913;52.456;13.634;2022-09-29T09:14:16;3.17;;;1.30;;
25155;SDS011;21913;52.456;13.634;2022-09-29T09:25:04;2.33;;;1.40;;
25155;SDS011;21913;52.456;13.634;2022-09-29T09:30:18;2.65;;;1.20;;
25155;SDS011;21913;52.456;13.634;2022-09-29T09:35:31;1.73;;;1.00;;
25155;SDS011;21913;52.456;13.634;2022-09-29T09:40:46;3.70;;;1.10;;
25155;SDS011;21913;52.456;13.634;2022-09-29T09:45:53;2.42;;;1.13;;
25155;SDS011;21913;52.456;13.634;2022-09-29T09:51:04;1.90;;;1.10;;
25155;SDS011;21913;52.456;13.634;2022-09-29T09:56:49;3.58;;;1.45;;
25155;SDS011;21913;52.456;13.634;2022-09-29T10:02:01;1.80;;;0.93;;
25155;SDS011;21913;52.456;13.634;2022-09-29T10:07:03;2.72;;;1.13;;
25155;SDS011;21913;52.456;13.634;2022-09-29T10:12:04;2.10;;;1.13;;
25155;SDS011;21913;52.456;13.634;2022-09-29T10:17:06;2.75;;;1.00;;
25155;SDS011;21913;52.456;13.634;2022-09-29T10:22:13;2.00;;;1.10;;
25155;SDS011;21913;52.456;13.634;2022-09-29T10:27:19;1.73;;;1.00;;
25155;SDS011;21913;52.456;13.634;2022-09-29T10:32:32;1.42;;;0.90;;
25155;SDS011;21913;52.456;13.634;2022-09-29T10:37:38;1.40;;;1.00;;
25155;SDS011;21913;52.456;13.634;2022-09-29T10:42:43;1.73;;;1.27;;
25155;SDS011;21913;52.456;13.634;2022-09-29T10:47:48;1.50;;;0.85;;
25155;SDS011;21913;52.456;13.634;2022-09-29T10:53:20;1.15;;;0.82;;
25155;SDS011;21913;52.456;13.634;2022-09-29T11:03:31;1.73;;;1.08;;
25155;SDS011;21913;52.456;13.634;2022-09-29T11:08:53;1.80;;;1.10;;
25155;SDS011;21913;52.456;13.634;2022-09-29T11:13:59;1.25;;;0.90;;
25155;SDS011;21913;52.456;13.634;2022-09-29T11:19:07;2.50;;;1.10;;
25155;SDS011;21913;52.456;13.634;2022-09-29T11:24:20;1.55;;;0.90;;
25155;SDS011;21913;52.456;13.634;2022-09-29T11:46:45;1.80;;;0.90;;
25155;SDS011;21913;52.456;13.634;2022-09-29T12:19:10;1.42;;;0.90;;
25155;SDS011;21913;52.456;13.634;2022-09-29T12:24:17;2.45;;;1.30;;
25155;SDS011;21913;52.456;13.634;2022-09-29T12:29:37;1.23;;;0.90;;
25155;SDS011;21913;52.456;13.634;2022-09-29T12:56:10;1.40;;;0.90;;
25155;SDS011;21913;52.456;13.634;2022-09-29T13:01:26;2.33;;;1.50;;
25155;SDS011;21913;52.456;13.634;2022-09-29T13:27:29;3.08;;;1.55;;
25155;SDS011;21913;52.456;13.634;2022-09-29T13:32:32;2.72;;;1.20;;
25155;SDS011;21913;52.456;13.634;2022-09-29T13:37:50;2.13;;;1.15;;
25155;SDS011;21913;52.456;13.634;2022-09-29T13:42:56;4.30;;;1.75;;
25155;SDS011;21913;52.456;13.634;2022-09-29T13:48:33;5.45;;;1.70;;
25155;SDS011;21913;52.456;13.634;2022-09-29T13:53:35;3.20;;;1.33;;
25155;SDS011;21913;52.456;13.634;2022-09-29T13:58:56;2.08;;;1.30;;
25155;SDS011;21913;52.456;13.634;2022-09-29T14:09:41;5.35;;;1.40;;
25155;SDS011;21913;52.456;13.634;2022-09-29T14:14:50;2.20;;;1.15;;
25155;SDS011;21913;52.456;13.634;2022-09-29T14:20:06;2.70;;;1.30;;
25155;SDS011;21913;52.456;13.634;2022-09-29T14:30:36;2.90;;;1.25;;
25155;SDS011;21913;52.456;13.634;2022-09-29T14:36:03;2.70;;;1.20;;
25155;SDS011;21913;52.456;13.634;2022-09-29T14:41:02;3.72;;;1.27;;
25155;SDS011;21913;52.456;13.634;2022-09-29T14:51:43;3.03;;;1.20;;
25155;SDS011;21913;52.456;13.634;2022-09-29T14:56:58;2.17;;;1.10;;
25155;SDS011;21913;52.456;13.634;2022-09-29T15:02:29;1.95;;;1.10;;
25155;SDS011;21913;52.456;13.634;2022-09-29T15:07:32;1.77;;;1.00;;
25155;SDS011;21913;52.456;13.634;2022-09-29T15:12:41;1.77;;;1.05;;
25155;SDS011;21913;52.456;13.634;2022-09-29T15:17:51;1.50;;;0.90;;
25155;SDS011;21913;52.456;13.634;2022-09-29T15:28:35;1.45;;;1.00;;
25155;SDS011;21913;52.456;13.634;2022-09-29T15:33:39;1.67;;;0.93;;
25155;SDS011;21913;52.456;13.634;2022-09-29T15:38:43;1.88;;;0.95;;
25155;SDS011;21913;52.456;13.634;2022-09-29T15:49:21;2.17;;;0.90;;
25155;SDS011;21913;52.456;13.634;2022-09-29T15:54:22;2.35;;;1.10;;
25155;SDS011;21913;52.456;13.634;2022-09-29T16:04:47;1.88;;;1.13;;
25155;SDS011;21913;52.456;13.634;2022-09-29T16:09:51;1.52;;;0.88;;
25155;SDS011;21913;52.456;13.634;2022-09-29T16:14:53;2.50;;;1.10;;
25155;SDS011;21913;52.456;13.634;2022-09-29T16:19:57;1.50;;;0.90;;
25155;SDS011;21913;52.456;13.634;2022-09-29T16:25:10;2.63;;;1.15;;
25155;SDS011;21913;52.456;13.634;2022-09-29T16:40:45;1.60;;;0.90;;
25155;SDS011;21913;52.456;13.634;2022-09-29T16:45:47;1.45;;;0.95;;
25155;SDS011;21913;52.456;13.634;2022-09-29T16:50:52;1.88;;;0.98;;
25155;SDS011;21913;52.456;13.634;2022-09-29T16:56:05;1.30;;;0.90;;
25155;SDS011;21913;52.456;13.634;2022-09-29T17:01:16;1.40;;;0.80;;
25155;SDS011;21913;52.456;13.634;2022-09-29T17:06:18;1.63;;;1.00;;
25155;SDS011;21913;52.456;13.634;2022-09-29T17:11:19;1.48;;;1.00;;
25155;SDS011;21913;52.456;13.634;2022-09-29T17:16:21;1.23;;;0.82;;
25155;SDS011;21913;52.456;13.634;2022-09-29T17:21:23;2.47;;;0.88;;
25155;SDS011;21913;52.456;13.634;2022-09-29T17:26:33;1.60;;;0.98;;
25155;SDS011;21913;52.456;13.634;2022-09-29T17:31:40;1.80;;;0.90;;
25155;SDS011;21913;52.456;13.634;2022-09-29T17:36:41;2.15;;;0.88;;
25155;SDS011;21913;52.456;13.634;2022-09-29T17:41:43;1.75;;;1.00;;
25155;SDS011;21913;52.456;13.634;2022-09-29T17:46:46;1.40;;;1.00;;
25155;SDS011;21913;52.456;13.634;2022-09-29T17:51:47;1.42;;;0.82;;
25155;SDS011;21913;52.456;13.634;2022-09-29T17:56:49;2.80;;;1.20;;
25155;SDS011;21913;52.456;13.634;2022-09-29T18:01:50;1.48;;;0.98;;
25155;SDS011;21913;52.456;13.634;2022-09-29T18:06:52;1.27;;;0.80;;
25155;SDS011;21913;52.456;13.634;2022-09-29T18:11:53;2.85;;;1.15;;
25155;SDS011;21913;52.456;13.634;2022-09-29T18:16:55;4.97;;;3.03;;
25155;SDS011;21913;52.456;13.634;2022-09-29T18:21:56;8.05;;;3.50;;
25155;SDS011;21913;52.456;13.634;2022-09-29T18:26:58;4.30;;;3.17;;
25155;SDS011;21913;52.456;13.634;2022-09-29T18:31:59;4.82;;;3.05;;
25155;SDS011;21913;52.456;13.634;2022-09-29T18:37:01;5.07;;;3.05;;
25155;SDS011;21913;52.456;13.634;2022-09-29T18:42:02;5.85;;;3.03;;
25155;SDS011;21913;52.456;13.634;2022-09-29T18:47:04;4.22;;;2.70;;
25155;SDS011;21913;52.456;13.634;2022-09-29T18:52:05;6.47;;;3.15;;
25155;SDS011;21913;52.456;13.634;2022-09-29T18:57:09;6.82;;;3.28;;
25155;SDS011;21913;52.456;13.634;2022-09-29T19:02:12;6.03;;;3.47;;
25155;SDS011;21913;52.456;13.634;2022-09-29T19:07:14;5.65;;;3.10;;
25155;SDS011;21913;52.456;13.634;2022-09-29T19:12:15;5.10;;;3.05;;
25155;SDS011;21913;52.456;13.634;2022-09-29T19:17:17;7.38;;;3.40;;
25155;SDS011;21913;52.456;13.634;2022-09-29T19:22:18;4.88;;;3.03;;
25155;SDS011;21913;52.456;13.634;2022-09-29T19:27:20;5.25;;;3.20;;
25155;SDS011;21913;52.456;13.634;2022-09-29T19:32:22;6.55;;;3.17;;
25155;SDS011;21913;52.456;13.634;2022-09-29T19:37:24;5.00;;;3.05;;
25155;SDS011;21913;52.456;13.634;2022-09-29T19:42:26;5.13;;;3.38;;
25155;SDS011;21913;52.456;13.634;2022-09-29T19:47:27;4.90;;;2.90;;
25155;SDS011;21913;52.456;13.634;2022-09-29T19:52:29;5.05;;;3.28;;
25155;SDS011;21913;52.456;13.634;2022-09-29T19:57:30;7.07;;;3.50;;
25155;SDS011;21913;52.456;13.634;2022-09-29T20:02:32;6.68;;;3.38;;
25155;SDS011;21913;52.456;13.634;2022-09-29T20:07:33;7.10;;;3.28;;
25155;SDS011;21913;52.456;13.634;2022-09-29T20:12:35;5.45;;;3.03;;
25155;SDS011;21913;52.456;13.634;2022-09-29T20:17:37;5.25;;;3.30;;
25155;SDS011;21913;52.456;13.634;2022-09-29T20:22:39;5.32;;;3.28;;
25155;SDS011;21913;52.456;13.634;2022-09-29T20:27:40;6.28;;;3.30;;
25155;SDS011;21913;52.456;13.634;2022-09-29T20:32:42;4.57;;;3.00;;
25155;SDS011;21913;52.456;13.634;2022-09-29T20:37:45;5.65;;;3.45;;
25155;SDS011;21913;52.456;13.634;2022-09-29T20:42:46;6.03;;;3.35;;
25155;SDS011;21913;52.456;13.634;2022-09-29T20:47:48;6.18;;;3.50;;
25155;SDS011;21913;52.456;13.634;2022-09-29T20:52:51;7.70;;;3.38;;
25155;SDS011;21913;52.456;13.634;2022-09-29T20:57:52;4.80;;;3.20;;
25155;SDS011;21913;52.456;13.634;2022-09-29T21:02:54;5.05;;;3.40;;
25155;SDS011;21913;52.456;13.634;2022-09-29T21:07:55;5.88;;;3.70;;
25155;SDS011;21913;52.456;13.634;2022-09-29T21:12:57;5.05;;;3.40;;
25155;SDS011;21913;52.456;13.634;2022-09-29T21:17:58;6.70;;;3.30;;
25155;SDS011;21913;52.456;13.634;2022-09-29T21:23:00;5.72;;;3.38;;
25155;SDS011;21913;52.456;13.634;2022-09-29T21:28:01;5.22;;;3.25;;
25155;SDS011;21913;52.456;13.634;2022-09-29T21:33:03;5.50;;;3.47;;
25155;SDS011;21913;52.456;13.634;2022-09-29T21:38:04;4.60;;;3.22;;
25155;SDS011;21913;52.456;13.634;2022-09-29T21:43:06;4.70;;;3.17;;
25155;SDS011;21913;52.456;13.634;2022-09-29T21:48:07;5.53;;;3.47;;
25155;SDS011;21913;52.456;13.634;2022-09-29T21:53:09;4.13;;;2.92;;
25155;SDS011;21913;52.456;13.634;2022-09-29T21:58:10;4.30;;;3.20;;
25155;SDS011;21913;52.456;13.634;2022-09-29T22:03:11;6.13;;;3.35;;
25155;SDS011;21913;52.456;13.634;2022-09-29T22:08:13;4.93;;;3.03;;
25155;SDS011;21913;52.456;13.634;2022-09-29T22:13:15;7.95;;;3.50;;
25155;SDS011;21913;52.456;13.634;2022-09-29T22:18:17;5.13;;;3.35;;
25155;SDS011;21913;52.456;13.634;2022-09-29T22:23:18;5.25;;;3.20;;
25155;SDS011;21913;52.456;13.634;2022-09-29T22:28:20;5.97;;;3.30;;
25155;SDS011;21913;52.456;13.634;2022-09-29T22:33:22;4.70;;;3.28;;
25155;SDS011;21913;52.456;13.634;2022-09-29T22:38:24;4.95;;;3.10;;
25155;SDS011;21913;52.456;13.634;2022-09-29T22:43:25;5.55;;;3.38;;
25155;SDS011;21913;52.456;13.634;2022-09-29T22:48:27;5.38;;;3.10;;
25155;SDS011;21913;52.456;13.634;2022-09-29T22:53:28;4.65;;;3.08;;
25155;SDS011;21913;52.456;13.634;2022-09-29T22:58:30;5.15;;;3.03;;
25155;SDS011;21913;52.456;13.634;2022-09-29T23:03:32;4.78;;;3.22;;
25155;SDS011;21913;52.456;13.634;2022-09-29T23:08:34;4.88;;;3.50;;
25155;SDS011;21913;52.456;13.634;2022-09-29T23:13:36;5.10;;;3.40;;
25155;SDS011;21913;52.456;13.634;2022-09-29T23:18:41;5.25;;;3.22;;
25155;SDS011;21913;52.456;13.634;2022-09-29T23:23:44;5.03;;;3.20;;
25155;SDS011;21913;52.456;13.634;2022-09-29T23:28:46;5.05;;;3.40;;
25155;SDS011;21913;52.456;13.634;2022-09-29T23:33:55;5.28;;;3.47;;
25155;SDS011;21913;52.456;13.634;2022-09-29T23:44:00;4.85;;;3.22;;
25155;SDS011;21913;52.456;13.634;2022-09-29T23:49:04;4.55;;;3.10;;
25155;SDS011;21913;52.456;13.634;2022-09-29T23:54:07;5.18;;;3.30;;
25155;SDS011;21913;52.456;13.634;2022-09-29T23:59:10;4.82;;;3.00;;
